Time;durP1;ratioP1;P1;durP2;ratioP2;P2;SDS_P1;SDS_P2;PMS_P1;PMS_P2;Temp;Humidity;BMP_temperature;BMP_pressure;BME280_temperature;BME280_humidity;BME280_pressure;Samples;Min_cycle;Max_cycle;Signal;HPM_P1;HPM_P2
2023/11/24 00:00:46;;;;;;;3.90;3.60;;;;;;;;;;5045502;28;20049;-59
2023/11/24 00:03:14;;;;;;;3.88;3.58;;;;;;;;;;5047044;28;20502;-61
2023/11/24 00:05:43;;;;;;;3.90;3.60;;;;;;;;;;5035193;28;20045;-61
2023/11/24 00:08:12;;;;;;;3.50;3.22;;;;;;;;;;5047963;28;20056;-62
2023/11/24 00:10:43;;;;;;;4.47;3.53;;;;;;;;;;5044332;28;20049;-61
2023/11/24 00:13:12;;;;;;;3.15;2.95;;;;;;;;;;5040768;28;20564;-60
2023/11/24 00:15:42;;;;;;;3.55;3.25;;;;;;;;;;5045670;28;20049;-64
2023/11/24 00:18:11;;;;;;;3.33;3.03;;;;;;;;;;5048914;28;20060;-62
2023/11/24 00:20:40;;;;;;;3.47;3.17;;;;;;;;;;5034628;28;20477;-61
2023/11/24 00:23:09;;;;;;;3.10;2.90;;;;;;;;;;5048819;28;20076;-61
2023/11/24 00:25:38;;;;;;;2.47;2.38;;;;;;;;;;5041663;28;20056;-60
2023/11/24 00:28:07;;;;;;;2.90;2.70;;;;;;;;;;5040921;28;20575;-64
2023/11/24 00:30:35;;;;;;;2.70;2.50;;;;;;;;;;5046143;28;20133;-62
2023/11/24 00:33:04;;;;;;;3.03;2.83;;;;;;;;;;5048746;28;20052;-61
2023/11/24 00:35:33;;;;;;;2.92;2.72;;;;;;;;;;5040253;28;20053;-61
2023/11/24 00:38:01;;;;;;;2.72;2.53;;;;;;;;;;5045783;28;20133;-61
2023/11/24 00:40:30;;;;;;;3.10;2.80;;;;;;;;;;5042582;28;20068;-61
2023/11/24 00:43:01;;;;;;;2.60;2.50;;;;;;;;;;5048610;28;20048;-63
2023/11/24 00:45:30;;;;;;;2.70;2.50;;;;;;;;;;5045684;28;20465;-61
2023/11/24 00:47:58;;;;;;;2.60;2.40;;;;;;;;;;5040928;28;20064;-60
2023/11/24 00:50:26;;;;;;;3.33;2.28;;;;;;;;;;5041259;28;20095;-63
2023/11/24 00:52:55;;;;;;;2.97;2.78;;;;;;;;;;5042825;28;20041;-60
2023/11/24 00:55:24;;;;;;;2.50;2.30;;;;;;;;;;5047910;28;20327;-61
2023/11/24 00:57:52;;;;;;;2.05;1.95;;;;;;;;;;5043331;28;20052;-62
2023/11/24 01:00:23;;;;;;;2.60;2.50;;;;;;;;;;5041092;28;20497;-62
2023/11/24 01:02:51;;;;;;;2.70;2.50;;;;;;;;;;5041618;28;20068;-63
2023/11/24 01:05:21;;;;;;;2.20;2.10;;;;;;;;;;5037105;28;20049;-60
2023/11/24 01:07:50;;;;;;;2.40;2.28;;;;;;;;;;5048099;28;20429;-61
2023/11/24 01:10:18;;;;;;;2.50;2.40;;;;;;;;;;5044208;28;20545;-61
2023/11/24 01:12:46;;;;;;;2.38;2.28;;;;;;;;;;5046535;28;20041;-61
2023/11/24 01:15:15;;;;;;;2.22;2.13;;;;;;;;;;5046912;28;20070;-60
2023/11/24 01:17:45;;;;;;;2.50;2.30;;;;;;;;;;5048188;28;20595;-61
2023/11/24 01:20:16;;;;;;;2.00;1.90;;;;;;;;;;5045208;28;20409;-62
2023/11/24 01:22:45;;;;;;;2.20;2.10;;;;;;;;;;5048163;28;20145;-62
2023/11/24 01:25:14;;;;;;;2.03;1.92;;;;;;;;;;5038002;28;20098;-61
2023/11/24 01:27:42;;;;;;;2.40;2.20;;;;;;;;;;5045964;28;20155;-61
2023/11/24 01:30:11;;;;;;;2.50;2.40;;;;;;;;;;5046458;28;20052;-62
2023/11/24 01:32:40;;;;;;;2.42;2.33;;;;;;;;;;5047045;28;20107;-61
2023/11/24 01:35:10;;;;;;;2.13;2.03;;;;;;;;;;5040491;28;20064;-68
2023/11/24 01:37:40;;;;;;;2.30;2.20;;;;;;;;;;5043717;28;20056;-62
2023/11/24 01:40:10;;;;;;;2.55;2.45;;;;;;;;;;5042319;28;20141;-60
2023/11/24 01:42:38;;;;;;;2.65;2.35;;;;;;;;;;5044047;28;20696;-61
2023/11/24 01:45:09;;;;;;;2.10;2.00;;;;;;;;;;5045669;28;20356;-61
2023/11/24 01:47:37;;;;;;;2.40;2.20;;;;;;;;;;5034681;28;20099;-61
2023/11/24 01:50:07;;;;;;;2.17;2.08;;;;;;;;;;5037039;28;20052;-63
2023/11/24 01:52:37;;;;;;;2.30;2.20;;;;;;;;;;5047694;28;20045;-61
2023/11/24 01:55:06;;;;;;;1.95;1.85;;;;;;;;;;5042051;28;20480;-63
2023/11/24 01:57:35;;;;;;;2.40;2.20;;;;;;;;;;5047421;28;20045;-62
2023/11/24 02:00:04;;;;;;;2.45;2.35;;;;;;;;;;5045148;28;20685;-63
2023/11/24 02:02:33;;;;;;;2.17;2.08;;;;;;;;;;5046333;28;20053;-63
2023/11/24 02:05:01;;;;;;;2.70;2.50;;;;;;;;;;5041635;28;20114;-62
2023/11/24 02:07:30;;;;;;;2.20;2.10;;;;;;;;;;5046231;28;20413;-61
2023/11/24 02:10:00;;;;;;;3.38;2.50;;;;;;;;;;5042413;28;20095;-64
2023/11/24 02:12:29;;;;;;;2.58;2.38;;;;;;;;;;5043647;28;20142;-64
2023/11/24 02:14:58;;;;;;;2.50;2.40;;;;;;;;;;5037086;28;20120;-66
2023/11/24 02:17:26;;;;;;;2.85;2.40;;;;;;;;;;5046259;28;20045;-62
2023/11/24 02:19:56;;;;;;;2.30;2.20;;;;;;;;;;5048121;28;20056;-62
2023/11/24 02:22:25;;;;;;;2.67;2.50;;;;;;;;;;5051593;28;20091;-64
2023/11/24 02:24:55;;;;;;;2.15;2.05;;;;;;;;;;5047918;28;20521;-62
2023/11/24 02:27:24;;;;;;;2.38;2.28;;;;;;;;;;5043116;28;20041;-63
2023/11/24 02:29:53;;;;;;;2.50;2.40;;;;;;;;;;5043808;28;20056;-63
2023/11/24 02:32:21;;;;;;;2.10;2.00;;;;;;;;;;5050528;28;20560;-62
2023/11/24 02:34:50;;;;;;;2.50;2.40;;;;;;;;;;5045731;28;20050;-63
2023/11/24 02:37:18;;;;;;;2.55;2.45;;;;;;;;;;5042069;28;20041;-63
2023/11/24 02:39:47;;;;;;;2.80;2.60;;;;;;;;;;5046455;28;20041;-62
2023/11/24 02:42:17;;;;;;;2.38;2.28;;;;;;;;;;5047731;28;20052;-62
2023/11/24 02:44:46;;;;;;;2.55;2.45;;;;;;;;;;5047972;28;20049;-61
2023/11/24 02:47:14;;;;;;;2.40;2.30;;;;;;;;;;5044164;28;20068;-63
2023/11/24 02:49:44;;;;;;;2.90;2.70;;;;;;;;;;5037047;28;20394;-62
2023/11/24 02:52:12;;;;;;;2.72;2.53;;;;;;;;;;5039495;28;20115;-60
2023/11/24 02:54:40;;;;;;;2.45;2.35;;;;;;;;;;5050307;28;20098;-61
2023/11/24 02:57:09;;;;;;;2.70;2.50;;;;;;;;;;5049893;28;20053;-61
2023/11/24 02:59:39;;;;;;;2.88;2.60;;;;;;;;;;5031212;28;20099;-59
2023/11/24 03:02:07;;;;;;;2.90;2.70;;;;;;;;;;5042182;28;20099;-60
2023/11/24 03:04:36;;;;;;;2.47;2.38;;;;;;;;;;5044791;28;20052;-59
2023/11/24 03:07:04;;;;;;;2.78;2.58;;;;;;;;;;5046748;28;20049;-61
2023/11/24 03:09:33;;;;;;;2.88;2.67;;;;;;;;;;5050054;28;20512;-60
2023/11/24 03:12:02;;;;;;;2.47;2.33;;;;;;;;;;5048490;28;20478;-61
2023/11/24 03:14:30;;;;;;;2.67;2.58;;;;;;;;;;5045591;28;20037;-61
2023/11/24 03:17:01;;;;;;;2.95;2.75;;;;;;;;;;5039082;28;20643;-61
2023/11/24 03:19:29;;;;;;;2.50;2.40;;;;;;;;;;5045707;28;20045;-61
2023/11/24 03:21:58;;;;;;;2.35;2.25;;;;;;;;;;5046587;28;20048;-61
2023/11/24 03:24:26;;;;;;;2.53;2.40;;;;;;;;;;5041534;28;20399;-60
2023/11/24 03:26:55;;;;;;;2.78;2.58;;;;;;;;;;5043029;28;20103;-61
2023/11/24 03:29:23;;;;;;;2.38;2.28;;;;;;;;;;5049942;28;20138;-60
2023/11/24 03:31:52;;;;;;;2.50;2.40;;;;;;;;;;5049152;28;20080;-60
2023/11/24 03:34:22;;;;;;;3.08;2.88;;;;;;;;;;5049404;28;20507;-59
2023/11/24 03:36:51;;;;;;;2.80;2.60;;;;;;;;;;5041883;28;20077;-59
2023/11/24 03:39:21;;;;;;;2.70;2.50;;;;;;;;;;5044091;28;20543;-59
2023/11/24 03:41:49;;;;;;;2.47;2.38;;;;;;;;;;5048009;28;20048;-60
2023/11/24 03:44:17;;;;;;;2.67;2.47;;;;;;;;;;5050000;28;20057;-60
2023/11/24 03:46:46;;;;;;;2.50;2.30;;;;;;;;;;5035311;28;20053;-60
2023/11/24 03:49:14;;;;;;;2.88;2.67;;;;;;;;;;5042620;28;20044;-60
2023/11/24 03:51:44;;;;;;;3.00;2.78;;;;;;;;;;5046518;28;20114;-61
2023/11/24 03:54:12;;;;;;;2.67;2.50;;;;;;;;;;5049048;28;20037;-62
2023/11/24 03:56:41;;;;;;;2.60;2.50;;;;;;;;;;5042281;28;20045;-59
2023/11/24 03:59:10;;;;;;;2.47;2.10;;;;;;;;;;5039669;28;20115;-61
2023/11/24 04:01:38;;;;;;;2.53;2.35;;;;;;;;;;5039882;28;20119;-64
2023/11/24 04:04:07;;;;;;;2.80;2.60;;;;;;;;;;5049558;28;20486;-59
2023/11/24 04:06:36;;;;;;;2.40;2.30;;;;;;;;;;5043019;28;20046;-59
2023/11/24 04:09:06;;;;;;;2.60;2.50;;;;;;;;;;5048812;28;20055;-61
2023/11/24 04:11:35;;;;;;;2.25;2.15;;;;;;;;;;5039843;28;20056;-60
2023/11/24 04:14:03;;;;;;;2.50;2.30;;;;;;;;;;5043611;28;20584;-61
2023/11/24 04:16:31;;;;;;;2.30;2.20;;;;;;;;;;5046759;28;20102;-60
2023/11/24 04:19:00;;;;;;;2.45;2.30;;;;;;;;;;5047888;28;20045;-59
2023/11/24 04:21:29;;;;;;;2.50;2.30;;;;;;;;;;5046330;28;20462;-60
2023/11/24 04:23:58;;;;;;;2.53;2.35;;;;;;;;;;5046648;28;20405;-61
2023/11/24 04:26:27;;;;;;;2.50;2.40;;;;;;;;;;5041885;28;20182;-61
2023/11/24 04:28:57;;;;;;;2.38;2.28;;;;;;;;;;5046791;28;20045;-60
2023/11/24 04:31:25;;;;;;;2.10;2.00;;;;;;;;;;5046083;28;20041;-59
2023/11/24 04:33:54;;;;;;;2.55;2.35;;;;;;;;;;5032299;28;20098;-60
2023/11/24 04:36:22;;;;;;;2.28;2.17;;;;;;;;;;5035473;28;20076;-60
2023/11/24 04:38:51;;;;;;;2.30;2.10;;;;;;;;;;5046242;28;20049;-61
2023/11/24 04:41:19;;;;;;;2.30;2.20;;;;;;;;;;5041834;28;20092;-61
2023/11/24 04:43:49;;;;;;;2.10;2.00;;;;;;;;;;5038616;28;20130;-61
2023/11/24 04:46:17;;;;;;;2.30;2.20;;;;;;;;;;5044338;28;20065;-62
2023/11/24 04:48:46;;;;;;;2.22;2.13;;;;;;;;;;5043403;28;20052;-60
2023/11/24 04:51:14;;;;;;;2.20;2.10;;;;;;;;;;5046738;28;20494;-60
2023/11/24 04:53:42;;;;;;;2.22;2.13;;;;;;;;;;5047684;28;20077;-61
2023/11/24 04:56:11;;;;;;;2.13;2.03;;;;;;;;;;5044130;28;20049;-62
2023/11/24 04:58:39;;;;;;;2.30;2.20;;;;;;;;;;5046742;28;20136;-60
2023/11/24 05:01:09;;;;;;;2.00;1.90;;;;;;;;;;5046808;28;20045;-63
2023/11/24 05:03:38;;;;;;;2.10;2.00;;;;;;;;;;5040247;28;20099;-59
2023/11/24 05:06:06;;;;;;;2.00;1.90;;;;;;;;;;5045905;28;20048;-60
2023/11/24 05:08:36;;;;;;;2.20;2.10;;;;;;;;;;5046051;28;20102;-60
2023/11/24 05:11:05;;;;;;;2.08;1.98;;;;;;;;;;5043994;28;20098;-60
2023/11/24 05:13:33;;;;;;;2.00;1.90;;;;;;;;;;5047476;28;20118;-62
2023/11/24 05:16:01;;;;;;;2.08;1.98;;;;;;;;;;5038574;28;20049;-60
2023/11/24 05:18:31;;;;;;;1.88;1.77;;;;;;;;;;5046669;28;20097;-62
2023/11/24 05:21:00;;;;;;;2.20;2.10;;;;;;;;;;5036760;28;20406;-60
2023/11/24 05:23:28;;;;;;;1.80;1.70;;;;;;;;;;5047289;28;20064;-60
2023/11/24 05:25:57;;;;;;;2.10;2.00;;;;;;;;;;5040765;28;20212;-60
2023/11/24 05:28:25;;;;;;;2.30;2.20;;;;;;;;;;5045874;28;20071;-60
2023/11/24 05:30:54;;;;;;;1.80;1.70;;;;;;;;;;5046960;28;20142;-62
2023/11/24 05:33:23;;;;;;;2.03;1.92;;;;;;;;;;5046001;28;20100;-60
2023/11/24 05:35:52;;;;;;;2.00;1.90;;;;;;;;;;5038062;28;20130;-61
2023/11/24 05:38:21;;;;;;;1.90;1.80;;;;;;;;;;5043526;28;20041;-61
2023/11/24 05:40:49;;;;;;;2.00;1.90;;;;;;;;;;5037249;28;20069;-62
2023/11/24 05:43:18;;;;;;;2.30;2.20;;;;;;;;;;5044371;28;20045;-60
2023/11/24 05:45:47;;;;;;;2.30;2.20;;;;;;;;;;5043369;28;20061;-59
2023/11/24 05:48:15;;;;;;;2.38;2.28;;;;;;;;;;5039670;28;20095;-60
2023/11/24 05:50:45;;;;;;;2.15;2.03;;;;;;;;;;5045389;28;20049;-59
2023/11/24 05:53:15;;;;;;;2.55;2.42;;;;;;;;;;5043565;28;20554;-60
2023/11/24 05:55:43;;;;;;;2.08;1.98;;;;;;;;;;5038106;28;20053;-59
2023/11/24 05:58:12;;;;;;;2.20;2.10;;;;;;;;;;5042191;28;20048;-61
2023/11/24 06:00:40;;;;;;;2.22;2.13;;;;;;;;;;5051009;28;20075;-59
2023/11/24 06:03:10;;;;;;;2.22;2.13;;;;;;;;;;5041052;28;20064;-61
2023/11/24 06:05:38;;;;;;;2.35;2.22;;;;;;;;;;5044855;28;20419;-64
2023/11/24 06:08:07;;;;;;;2.08;1.98;;;;;;;;;;5038362;28;20045;-60
2023/11/24 06:10:36;;;;;;;2.00;1.90;;;;;;;;;;5046347;28;20106;-59
2023/11/24 06:13:05;;;;;;;2.22;2.13;;;;;;;;;;5042890;28;20549;-59
2023/11/24 06:15:33;;;;;;;2.10;2.00;;;;;;;;;;5046902;28;20505;-62
2023/11/24 06:18:02;;;;;;;2.45;2.28;;;;;;;;;;5044286;28;20106;-60
2023/11/24 06:20:30;;;;;;;2.65;2.45;;;;;;;;;;5042838;28;20467;-59
2023/11/24 06:22:59;;;;;;;2.65;2.53;;;;;;;;;;5036657;28;20045;-65
2023/11/24 06:25:27;;;;;;;2.63;2.42;;;;;;;;;;5036484;28;20053;-60
2023/11/24 06:27:57;;;;;;;2.28;2.17;;;;;;;;;;5043205;28;20118;-59
2023/11/24 06:30:25;;;;;;;2.33;2.22;;;;;;;;;;5044073;28;20088;-61
2023/11/24 06:32:54;;;;;;;2.40;2.20;;;;;;;;;;5045818;28;20394;-59
2023/11/24 06:35:22;;;;;;;2.30;2.20;;;;;;;;;;5046307;28;20461;-59
2023/11/24 06:37:51;;;;;;;2.60;2.40;;;;;;;;;;5038341;28;20045;-61
2023/11/24 06:40:19;;;;;;;2.40;2.20;;;;;;;;;;5041131;28;20116;-60
2023/11/24 06:42:48;;;;;;;3.10;2.80;;;;;;;;;;5045199;28;20098;-60
2023/11/24 06:45:18;;;;;;;2.90;2.70;;;;;;;;;;5049136;28;20056;-60
2023/11/24 06:47:50;;;;;;;2.70;2.50;;;;;;;;;;5036090;28;20045;-61
2023/11/24 06:50:18;;;;;;;2.85;2.65;;;;;;;;;;5039312;28;20041;-60
2023/11/24 06:52:47;;;;;;;2.50;2.40;;;;;;;;;;5042790;28;20558;-59
2023/11/24 06:55:15;;;;;;;2.60;2.42;;;;;;;;;;5048106;28;20079;-61
2023/11/24 06:57:44;;;;;;;4.25;2.80;;;;;;;;;;5044969;28;20056;-60
2023/11/24 07:00:17;;;;;;;2.55;2.45;;;;;;;;;;5046961;28;20048;-59
2023/11/24 07:02:48;;;;;;;2.97;2.78;;;;;;;;;;5048483;28;20072;-61
2023/11/24 07:05:17;;;;;;;3.17;2.95;;;;;;;;;;5040097;28;20046;-58
2023/11/24 07:07:46;;;;;;;2.80;2.60;;;;;;;;;;5044094;28;20053;-61
2023/11/24 07:10:14;;;;;;;2.85;2.63;;;;;;;;;;5050268;28;20122;-59
2023/11/24 07:12:43;;;;;;;2.78;2.58;;;;;;;;;;5050580;28;20092;-58
2023/11/24 07:15:12;;;;;;;3.13;2.80;;;;;;;;;;5046011;28;20445;-63
2023/11/24 07:17:41;;;;;;;2.75;2.55;;;;;;;;;;5046139;28;20049;-60
2023/11/24 07:20:12;;;;;;;3.08;2.88;;;;;;;;;;5044291;28;20099;-60
2023/11/24 07:22:41;;;;;;;3.10;2.90;;;;;;;;;;5047604;28;20045;-62
2023/11/24 07:25:10;;;;;;;3.15;2.85;;;;;;;;;;5039703;28;20052;-63
2023/11/24 07:27:39;;;;;;;2.22;2.13;;;;;;;;;;5037061;28;20053;-62
2023/11/24 07:30:09;;;;;;;2.10;2.00;;;;;;;;;;5034306;28;20506;-62
2023/11/24 07:32:38;;;;;;;2.00;1.90;;;;;;;;;;5034105;28;20041;-60
2023/11/24 07:35:07;;;;;;;1.88;1.77;;;;;;;;;;5041817;28;20057;-61
2023/11/24 07:37:38;;;;;;;2.15;2.05;;;;;;;;;;5043379;28;20052;-62
2023/11/24 07:40:13;;;;;;;2.15;2.05;;;;;;;;;;5042415;28;20103;-63
2023/11/24 07:42:43;;;;;;;1.95;1.85;;;;;;;;;;5037085;28;20041;-61
2023/11/24 07:45:15;;;;;;;2.35;2.15;;;;;;;;;;5040912;28;20053;-60
2023/11/24 07:47:44;;;;;;;2.13;1.92;;;;;;;;;;5039361;28;20049;-62
2023/11/24 07:50:12;;;;;;;2.10;2.00;;;;;;;;;;5040807;28;20139;-60
2023/11/24 07:52:44;;;;;;;2.90;2.08;;;;;;;;;;5041901;28;20053;-62
2023/11/24 07:55:13;;;;;;;1.90;1.80;;;;;;;;;;5039072;28;20041;-59
2023/11/24 07:57:42;;;;;;;1.98;1.85;;;;;;;;;;5036235;28;20057;-61
2023/11/24 08:00:12;;;;;;;2.08;1.88;;;;;;;;;;5038388;28;20486;-58
2023/11/24 08:02:42;;;;;;;2.40;1.90;;;;;;;;;;5041640;28;20076;-60
2023/11/24 08:05:11;;;;;;;2.50;2.30;;;;;;;;;;5038938;28;20045;-59
2023/11/24 08:07:40;;;;;;;5.20;2.45;;;;;;;;;;5039217;28;20521;-58
2023/11/24 08:10:11;;;;;;;2.85;2.00;;;;;;;;;;5044227;28;20051;-61
2023/11/24 08:12:39;;;;;;;2.83;2.28;;;;;;;;;;5044322;28;20131;-60
2023/11/24 08:15:09;;;;;;;3.00;2.65;;;;;;;;;;5047888;28;20041;-60
2023/11/24 08:17:38;;;;;;;3.00;2.00;;;;;;;;;;5038039;28;20052;-58
2023/11/24 08:20:10;;;;;;;2.08;1.98;;;;;;;;;;5047438;28;20045;-59
2023/11/24 08:22:39;;;;;;;2.40;1.90;;;;;;;;;;5049111;28;20136;-61
2023/11/24 08:25:09;;;;;;;2.88;2.03;;;;;;;;;;5042935;28;20498;-59
2023/11/24 08:27:39;;;;;;;2.10;2.00;;;;;;;;;;5047191;28;20064;-59
2023/11/24 08:30:11;;;;;;;2.35;2.25;;;;;;;;;;5049308;28;20133;-58
2023/11/24 08:32:40;;;;;;;2.30;2.15;;;;;;;;;;5049612;28;20080;-61
2023/11/24 08:35:14;;;;;;;2.47;2.22;;;;;;;;;;5032940;28;20045;-60
2023/11/24 08:37:42;;;;;;;2.53;1.92;;;;;;;;;;5048802;28;20049;-61
2023/11/24 08:40:14;;;;;;;2.55;2.08;;;;;;;;;;5037765;28;20080;-60
2023/11/24 08:42:45;;;;;;;1.90;1.80;;;;;;;;;;5043679;28;20044;-60
2023/11/24 08:45:16;;;;;;;2.55;2.05;;;;;;;;;;5037429;28;20057;-63
2023/11/24 08:47:46;;;;;;;2.20;2.00;;;;;;;;;;5037342;28;20052;-61
2023/11/24 08:50:16;;;;;;;2.25;2.15;;;;;;;;;;5038956;28;20055;-60
2023/11/24 08:52:47;;;;;;;4.75;2.25;;;;;;;;;;5041101;28;20055;-59
2023/11/24 08:55:16;;;;;;;2.97;2.10;;;;;;;;;;5040836;28;20068;-58
2023/11/24 08:57:46;;;;;;;2.00;1.90;;;;;;;;;;5041718;28;20056;-61
2023/11/24 09:00:15;;;;;;;2.65;2.30;;;;;;;;;;5034550;28;20056;-59
2023/11/24 09:02:44;;;;;;;4.90;1.98;;;;;;;;;;5035637;28;20048;-59
2023/11/24 09:05:13;;;;;;;3.83;2.25;;;;;;;;;;5048641;28;20103;-59
2023/11/24 09:07:42;;;;;;;4.82;2.17;;;;;;;;;;5045176;28;20049;-60
2023/11/24 09:10:12;;;;;;;2.30;2.00;;;;;;;;;;5040203;28;20053;-63
2023/11/24 09:12:40;;;;;;;2.40;2.20;;;;;;;;;;5035076;28;20049;-59
2023/11/24 09:15:11;;;;;;;2.30;2.17;;;;;;;;;;5042837;28;20052;-61
2023/11/24 09:17:40;;;;;;;2.67;2.33;;;;;;;;;;5045204;28;20045;-59
2023/11/24 09:20:16;;;;;;;5.25;2.50;;;;;;;;;;5048116;28;20607;-59
2023/11/24 09:22:44;;;;;;;2.13;1.95;;;;;;;;;;5037789;28;20061;-60
2023/11/24 09:25:15;;;;;;;2.35;2.13;;;;;;;;;;5043203;28;20638;-61
2023/11/24 09:27:44;;;;;;;2.17;2.08;;;;;;;;;;5045403;28;20071;-61
2023/11/24 09:30:14;;;;;;;2.33;2.00;;;;;;;;;;5042523;28;20119;-60
2023/11/24 09:32:43;;;;;;;5.55;2.25;;;;;;;;;;5040642;28;20049;-60
2023/11/24 09:35:12;;;;;;;2.28;2.08;;;;;;;;;;5047438;28;20147;-60
2023/11/24 09:37:40;;;;;;;5.28;2.30;;;;;;;;;;5044807;28;20084;-61
2023/11/24 09:40:13;;;;;;;2.58;2.03;;;;;;;;;;5043624;28;20046;-62
2023/11/24 09:42:44;;;;;;;5.22;2.38;;;;;;;;;;5042735;28;20106;-61
2023/11/24 09:45:17;;;;;;;3.00;2.63;;;;;;;;;;5044075;28;20048;-59
2023/11/24 09:47:48;;;;;;;6.18;2.25;;;;;;;;;;5037895;28;21477;-62
2023/11/24 09:50:23;;;;;;;2.00;1.90;;;;;;;;;;5045707;28;20053;-60
2023/11/24 09:52:52;;;;;;;;;;;;;;;;;;5045304;28;20557;-60
2023/11/24 09:55:21;;;;;;;3.75;2.80;;;;;;;;;;5039092;28;19967;-60
2023/11/24 09:57:55;;;;;;;2.05;1.95;;;;;;;;;;5042656;28;20059;-60
2023/11/24 10:00:26;;;;;;;2.22;2.13;;;;;;;;;;5032159;28;20051;-60
2023/11/24 10:02:58;;;;;;;2.67;2.50;;;;;;;;;;5047999;28;20053;-59
2023/11/24 10:05:28;;;;;;;2.92;2.15;;;;;;;;;;5045537;28;20053;-60
2023/11/24 10:07:59;;;;;;;2.13;2.00;;;;;;;;;;5042363;28;20068;-59
2023/11/24 10:10:28;;;;;;;2.47;2.25;;;;;;;;;;5036783;28;20037;-60
2023/11/24 10:12:59;;;;;;;5.38;2.40;;;;;;;;;;5035537;28;20045;-60
2023/11/24 10:15:30;;;;;;;4.57;2.03;;;;;;;;;;5032962;28;20084;-60
2023/11/24 10:17:59;;;;;;;3.15;1.95;;;;;;;;;;5037585;28;20057;-60
2023/11/24 10:20:30;;;;;;;2.47;2.20;;;;;;;;;;5045349;28;20095;-60
2023/11/24 10:23:00;;;;;;;3.95;2.13;;;;;;;;;;5038251;28;20053;-59
2023/11/24 10:25:29;;;;;;;2.78;2.00;;;;;;;;;;5035648;28;20068;-60
2023/11/24 10:28:00;;;;;;;2.50;2.30;;;;;;;;;;5034867;28;20527;-60
2023/11/24 10:30:30;;;;;;;2.22;2.00;;;;;;;;;;5034670;28;20045;-59
2023/11/24 10:32:58;;;;;;;2.28;2.08;;;;;;;;;;5040959;28;20131;-60
2023/11/24 10:35:27;;;;;;;2.25;2.15;;;;;;;;;;5039308;28;20059;-60
2023/11/24 10:37:56;;;;;;;2.67;2.40;;;;;;;;;;5036708;28;20045;-60
2023/11/24 10:40:25;;;;;;;2.72;2.53;;;;;;;;;;5045331;28;20498;-60
2023/11/24 10:42:55;;;;;;;2.40;2.20;;;;;;;;;;5044955;28;20042;-60
2023/11/24 10:45:24;;;;;;;4.03;2.35;;;;;;;;;;5038089;28;20442;-59
2023/11/24 10:48:02;;;;;;;2.17;2.08;;;;;;;;;;5040493;28;20049;-63
2023/11/24 10:50:32;;;;;;;2.88;2.20;;;;;;;;;;5047512;28;20048;-61
2023/11/24 10:53:07;;;;;;;2.38;2.05;;;;;;;;;;5038446;28;20490;-60
2023/11/24 10:55:37;;;;;;;2.13;2.03;;;;;;;;;;5047068;28;20085;-61
2023/11/24 10:58:06;;;;;;;2.38;2.17;;;;;;;;;;5043115;28;20518;-61
2023/11/24 11:00:37;;;;;;;2.75;2.63;;;;;;;;;;5033435;28;20119;-60
2023/11/24 11:03:07;;;;;;;2.10;2.00;;;;;;;;;;5036688;28;20049;-60
2023/11/24 11:05:43;;;;;;;2.17;2.00;;;;;;;;;;5036200;28;20601;-60
2023/11/24 11:08:18;;;;;;;3.63;2.30;;;;;;;;;;5040366;28;20059;-60
2023/11/24 11:10:57;;;;;;;2.17;2.08;;;;;;;;;;5047624;28;20045;-60
2023/11/24 11:13:27;;;;;;;3.80;2.50;;;;;;;;;;5040991;28;20052;-60
2023/11/24 11:15:55;;;;;;;2.15;2.05;;;;;;;;;;5041719;28;20469;-59
2023/11/24 11:18:27;;;;;;;2.55;2.30;;;;;;;;;;5042792;28;20142;-62
2023/11/24 11:20:55;;;;;;;2.33;2.13;;;;;;;;;;5039025;28;20110;-63
2023/11/24 11:23:26;;;;;;;1.90;1.80;;;;;;;;;;5041625;28;20497;-60
2023/11/24 11:25:54;;;;;;;2.28;2.17;;;;;;;;;;5043788;28;20045;-61
2023/11/24 11:28:34;;;;;;;2.22;2.03;;;;;;;;;;5048065;28;20045;-61
2023/11/24 11:31:21;;;;;;;2.67;2.55;;;;;;;;;;5036364;28;20076;-61
2023/11/24 11:33:52;;;;;;;4.57;2.47;;;;;;;;;;5039081;28;20052;-60
2023/11/24 11:36:26;;;;;;;2.03;1.92;;;;;;;;;;5040463;28;20095;-62
2023/11/24 11:38:55;;;;;;;2.53;2.33;;;;;;;;;;5047857;28;20095;-60
2023/11/24 11:41:44;;;;;;;2.05;1.95;;;;;;;;;;5040079;28;20044;-61
2023/11/24 11:44:19;;;;;;;2.20;2.10;;;;;;;;;;5044962;28;20049;-60
2023/11/24 11:47:08;;;;;;;2.40;2.30;;;;;;;;;;5048529;28;20127;-61
2023/11/24 11:49:41;;;;;;;2.83;1.92;;;;;;;;;;5047514;28;20045;-60
2023/11/24 11:52:11;;;;;;;1.98;1.88;;;;;;;;;;5045644;28;20110;-60
2023/11/24 11:54:41;;;;;;;2.03;1.92;;;;;;;;;;5039783;28;20481;-61
2023/11/24 11:57:10;;;;;;;2.22;2.13;;;;;;;;;;5041671;28;20045;-61
2023/11/24 11:59:39;;;;;;;3.20;2.00;;;;;;;;;;5045881;28;20087;-60
2023/11/24 12:02:11;;;;;;;3.25;2.05;;;;;;;;;;5040838;28;20587;-59
2023/11/24 12:04:47;;;;;;;2.03;1.92;;;;;;;;;;5031805;28;20751;-60
2023/11/24 12:07:18;;;;;;;1.90;1.80;;;;;;;;;;5037681;28;20418;-61
2023/11/24 12:09:49;;;;;;;1.73;1.70;;;;;;;;;;5036779;28;20475;-60
2023/11/24 12:12:18;;;;;;;2.55;1.88;;;;;;;;;;5049496;28;20514;-61
2023/11/24 12:14:48;;;;;;;1.70;1.70;;;;;;;;;;5037723;28;20049;-61
2023/11/24 12:17:17;;;;;;;2.05;1.95;;;;;;;;;;5032008;28;20049;-60
2023/11/24 12:19:48;;;;;;;1.95;1.85;;;;;;;;;;5046291;28;20064;-62
2023/11/24 12:22:18;;;;;;;2.78;2.30;;;;;;;;;;5039440;28;20048;-61
2023/11/24 12:24:47;;;;;;;1.88;1.83;;;;;;;;;;5042005;28;20049;-63
2023/11/24 12:27:15;;;;;;;1.95;1.85;;;;;;;;;;5038799;28;20052;-62
2023/11/24 12:29:46;;;;;;;1.88;1.77;;;;;;;;;;5044177;28;20249;-62
2023/11/24 12:32:14;;;;;;;2.10;2.00;;;;;;;;;;5043985;28;20049;-68
2023/11/24 12:34:47;;;;;;;1.95;1.85;;;;;;;;;;5044579;28;20083;-62
2023/11/24 12:37:16;;;;;;;2.20;2.10;;;;;;;;;;5040074;28;20049;-63
2023/11/24 12:39:45;;;;;;;2.17;2.03;;;;;;;;;;5040776;28;20379;-61
2023/11/24 12:42:14;;;;;;;2.17;1.80;;;;;;;;;;5042220;28;20730;-60
2023/11/24 12:44:42;;;;;;;2.00;1.90;;;;;;;;;;5042192;28;20397;-62
2023/11/24 12:47:11;;;;;;;4.20;2.05;;;;;;;;;;5044075;28;20437;-62
2023/11/24 12:49:54;;;;;;;2.30;2.10;;;;;;;;;;5043795;28;20057;-64
2023/11/24 12:52:25;;;;;;;2.60;2.10;;;;;;;;;;5045353;28;20041;-62
2023/11/24 12:54:54;;;;;;;2.00;1.90;;;;;;;;;;5044906;28;20056;-63
2023/11/24 12:57:23;;;;;;;2.20;2.00;;;;;;;;;;5040415;28;20045;-62
2023/11/24 12:59:52;;;;;;;2.70;2.05;;;;;;;;;;5034296;28;20044;-62
2023/11/24 13:02:20;;;;;;;2.17;2.08;;;;;;;;;;5044535;28;20387;-62
2023/11/24 13:04:49;;;;;;;2.03;1.88;;;;;;;;;;5030853;28;20049;-62
2023/11/24 13:07:18;;;;;;;2.08;1.90;;;;;;;;;;5042447;28;20076;-63
2023/11/24 13:09:49;;;;;;;2.10;2.00;;;;;;;;;;5037395;28;20049;-64
2023/11/24 13:12:18;;;;;;;1.95;1.85;;;;;;;;;;5044280;28;20041;-62
2023/11/24 13:14:46;;;;;;;1.77;1.77;;;;;;;;;;5040681;28;20541;-62
2023/11/24 13:17:15;;;;;;;1.60;1.60;;;;;;;;;;5039285;28;20122;-63
2023/11/24 13:19:43;;;;;;;2.45;1.90;;;;;;;;;;5043388;28;20053;-64
2023/11/24 13:22:12;;;;;;;2.15;2.05;;;;;;;;;;5043405;28;20044;-64
2023/11/24 13:24:41;;;;;;;1.83;1.73;;;;;;;;;;5043036;28;20053;-65
2023/11/24 13:27:12;;;;;;;1.80;1.70;;;;;;;;;;5039078;28;20053;-67
2023/11/24 13:29:42;;;;;;;1.90;1.80;;;;;;;;;;5040142;28;20049;-66
2023/11/24 13:32:11;;;;;;;2.78;2.00;;;;;;;;;;5023730;28;20059;-65
2023/11/24 13:34:40;;;;;;;1.85;1.75;;;;;;;;;;5039482;28;20479;-64
2023/11/24 13:37:10;;;;;;;1.90;1.60;;;;;;;;;;5046941;28;20067;-64
2023/11/24 13:39:39;;;;;;;1.75;1.65;;;;;;;;;;5044751;28;20041;-64
2023/11/24 13:42:08;;;;;;;1.60;1.60;;;;;;;;;;5040072;28;20041;-64
2023/11/24 13:44:40;;;;;;;1.70;1.70;;;;;;;;;;5043906;28;20099;-66
2023/11/24 13:47:12;;;;;;;1.80;1.70;;;;;;;;;;5046552;28;20060;-65
2023/11/24 13:49:41;;;;;;;2.28;2.08;;;;;;;;;;5036798;28;20045;-65
2023/11/24 13:52:11;;;;;;;1.70;1.60;;;;;;;;;;5047751;28;20045;-64
2023/11/24 13:54:39;;;;;;;1.90;1.80;;;;;;;;;;5043178;28;20167;-65
2023/11/24 13:57:09;;;;;;;2.95;1.90;;;;;;;;;;5042856;28;20041;-65
2023/11/24 13:59:40;;;;;;;1.90;1.80;;;;;;;;;;5038748;28;20049;-66
2023/11/24 14:02:09;;;;;;;1.80;1.70;;;;;;;;;;5038781;28;20075;-63
2023/11/24 14:04:38;;;;;;;4.20;1.70;;;;;;;;;;5043236;28;20061;-64
2023/11/24 14:07:06;;;;;;;1.70;1.60;;;;;;;;;;5041546;28;20053;-65
2023/11/24 14:09:40;;;;;;;1.60;1.50;;;;;;;;;;5042122;28;20160;-64
2023/11/24 14:12:09;;;;;;;2.78;1.70;;;;;;;;;;5041162;28;20065;-63
2023/11/24 14:14:39;;;;;;;1.77;1.67;;;;;;;;;;5038761;28;20040;-64
2023/11/24 14:17:08;;;;;;;1.80;1.70;;;;;;;;;;5051549;28;20059;-64
2023/11/24 14:19:37;;;;;;;1.55;1.45;;;;;;;;;;5044161;28;20044;-64
2023/11/24 14:22:07;;;;;;;1.60;1.50;;;;;;;;;;5046216;28;20049;-63
2023/11/24 14:24:36;;;;;;;2.80;1.75;;;;;;;;;;5043501;28;20049;-65
2023/11/24 14:27:05;;;;;;;2.05;1.60;;;;;;;;;;5039105;28;20108;-65
2023/11/24 14:29:33;;;;;;;1.90;1.80;;;;;;;;;;5043241;28;20052;-66
2023/11/24 14:32:05;;;;;;;1.80;1.70;;;;;;;;;;5048840;28;20045;-62
2023/11/24 14:34:34;;;;;;;1.95;1.80;;;;;;;;;;5044701;28;20049;-65
2023/11/24 14:37:03;;;;;;;1.75;1.65;;;;;;;;;;5044642;28;20401;-63
2023/11/24 14:39:33;;;;;;;1.77;1.75;;;;;;;;;;5047122;28;20107;-64
2023/11/24 14:42:01;;;;;;;1.58;1.55;;;;;;;;;;5048854;28;20048;-63
2023/11/24 14:44:30;;;;;;;2.00;1.90;;;;;;;;;;5047163;28;20087;-63
2023/11/24 14:46:58;;;;;;;1.80;1.63;;;;;;;;;;5041833;28;20041;-63
2023/11/24 14:49:29;;;;;;;1.90;1.80;;;;;;;;;;5045976;28;20053;-66
2023/11/24 14:51:58;;;;;;;1.73;1.70;;;;;;;;;;5047056;28;20072;-65
2023/11/24 14:54:29;;;;;;;2.35;1.70;;;;;;;;;;5045963;28;20049;-65
2023/11/24 14:56:58;;;;;;;1.83;1.73;;;;;;;;;;5044887;28;20041;-65